Time;durP1;ratioP1;P1;durP2;ratioP2;P2;SDS_P1;SDS_P2;PMS_P1;PMS_P2;Temp;Humidity;BMP_temperature;BMP_pressure;BME280_temperature;BME280_humidity;BME280_pressure;Samples;Min_cycle;Max_cycle;Signal;HPM_P1;HPM_P2
2023/04/12 00:01:25;;;;;;;;;;;11.90;71.30;;;;;;5072394;28;19908;-41
2023/04/12 00:03:53;;;;;;;;;;;11.90;71.20;;;;;;5072542;28;20284;-38
2023/04/12 00:06:24;;;;;;;;;;;11.80;71.10;;;;;;5072588;28;19912;-38
2023/04/12 00:08:49;;;;;;;;;;;11.80;70.90;;;;;;5072531;28;19915;-38
2023/04/12 00:11:15;;;;;;;;;;;11.80;72.00;;;;;;5072555;28;19909;-39
2023/04/12 00:13:41;;;;;;;;;;;11.80;72.60;;;;;;5072260;28;19936;-40
2023/04/12 00:16:07;;;;;;;;;;;11.70;72.70;;;;;;5072391;28;19948;-40
2023/04/12 00:18:33;;;;;;;;;;;11.70;72.40;;;;;;5072427;28;19915;-41
2023/04/12 00:20:58;;;;;;;;;;;11.70;72.10;;;;;;5071943;28;19909;-46
2023/04/12 00:23:24;;;;;;;;;;;11.60;72.00;;;;;;5070776;28;19989;-40
2023/04/12 00:25:49;;;;;;;;;;;11.60;72.10;;;;;;5071997;28;19916;-37
2023/04/12 00:28:15;;;;;;;;;;;11.50;72.80;;;;;;5071686;28;19928;-41
2023/04/12 00:30:40;;;;;;;;;;;11.50;72.70;;;;;;5071877;28;20308;-44
2023/04/12 00:33:06;;;;;;;;;;;11.50;72.60;;;;;;5070667;28;19939;-41
2023/04/12 00:35:31;;;;;;;;;;;11.40;72.70;;;;;;5071841;28;19916;-38
2023/04/12 00:37:57;;;;;;;;;;;11.40;72.70;;;;;;5071848;28;19908;-45
2023/04/12 00:40:22;;;;;;;;;;;11.40;72.80;;;;;;5071807;28;20283;-39
2023/04/12 00:42:48;;;;;;;;;;;11.30;73.00;;;;;;5071696;28;20004;-39
2023/04/12 00:45:13;;;;;;;;;;;11.30;73.20;;;;;;5071649;28;19908;-40
2023/04/12 00:47:41;;;;;;;;;;;11.30;73.50;;;;;;5071743;28;19915;-40
2023/04/12 00:50:07;;;;;;;;;;;11.30;74.80;;;;;;5071722;28;19916;-40
2023/04/12 00:52:33;;;;;;;;;;;11.20;74.70;;;;;;5071969;28;19908;-40
2023/04/12 00:55:02;;;;;;;;;;;11.20;75.40;;;;;;5071540;28;20006;-40
2023/04/12 00:57:32;;;;;;;;;;;11.10;75.40;;;;;;5071446;28;19912;-47
2023/04/12 00:59:58;;;;;;;;;;;11.10;75.90;;;;;;5071689;28;20042;-39
2023/04/12 01:02:23;;;;;;;;;;;11.10;75.80;;;;;;5071337;28;19940;-46
2023/04/12 01:04:50;;;;;;;;;;;11.00;76.30;;;;;;5071392;28;19909;-38
2023/04/12 01:07:24;;;;;;;;;;;11.00;75.70;;;;;;5071774;28;19913;-40
2023/04/12 01:10:08;;;;;;;;;;;11.00;75.50;;;;;;5075407;28;20385;-39
2023/04/12 01:12:41;;;;;;;;;;;11.00;75.30;;;;;;5073695;28;20280;-39
2023/04/12 01:15:08;;;;;;;;;;;11.00;75.50;;;;;;5075220;28;20003;-39
2023/04/12 01:17:37;;;;;;;;;;;11.00;75.80;;;;;;5073632;28;20005;-39
2023/04/12 01:20:12;;;;;;;;;;;10.90;76.60;;;;;;5074829;28;19920;-41
2023/04/12 01:22:53;;;;;;;;;;;10.90;76.80;;;;;;5074981;28;19922;-41
2023/04/12 01:25:38;;;;;;;;;;;10.90;77.20;;;;;;5075160;28;20043;-38
2023/04/12 01:28:04;;;;;;;;;;;10.80;78.70;;;;;;5074514;28;19920;-39
2023/04/12 01:30:30;;;;;;;;;;;10.80;78.30;;;;;;5074646;28;20283;-38
2023/04/12 01:32:58;;;;;;;;;;;10.80;79.10;;;;;;5074568;28;19915;-43
2023/04/12 01:35:28;;;;;;;;;;;10.70;78.70;;;;;;5074461;28;19958;-39
2023/04/12 01:37:55;;;;;;;;;;;10.70;78.70;;;;;;5074527;28;19908;-39
2023/04/12 01:40:21;;;;;;;;;;;10.60;79.70;;;;;;5074572;28;20391;-40
2023/04/12 01:42:46;;;;;;;;;;;10.60;79.40;;;;;;5074478;28;19909;-40
2023/04/12 01:45:12;;;;;;;;;;;10.50;79.20;;;;;;5074347;28;20311;-38
2023/04/12 01:47:38;;;;;;;;;;;10.60;80.10;;;;;;5074374;28;20003;-39
2023/04/12 01:50:03;;;;;;;;;;;10.50;80.30;;;;;;5074354;28;19908;-40
2023/04/12 01:52:32;;;;;;;;;;;10.50;80.10;;;;;;5074612;28;19908;-39
2023/04/12 01:55:01;;;;;;;;;;;10.50;81.40;;;;;;5074114;28;19999;-39
2023/04/12 01:57:26;;;;;;;;;;;10.50;81.90;;;;;;5074100;28;19916;-40
2023/04/12 01:59:53;;;;;;;;;;;10.50;82.20;;;;;;5074230;28;19909;-37
2023/04/12 02:02:19;;;;;;;;;;;10.50;82.90;;;;;;5074265;28;19909;-40
2023/04/12 02:04:45;;;;;;;;;;;10.50;82.40;;;;;;5074108;28;19915;-40
2023/04/12 02:07:12;;;;;;;;;;;10.50;83.20;;;;;;5074122;28;19912;-43
2023/04/12 02:09:38;;;;;;;;;;;10.50;83.40;;;;;;5074017;28;19908;-39
2023/04/12 02:12:04;;;;;;;;;;;10.50;84.70;;;;;;5073844;28;20431;-40
2023/04/12 02:14:30;;;;;;;;;;;10.40;86.10;;;;;;5073924;28;20340;-39
2023/04/12 02:16:57;;;;;;;;;;;10.40;85.60;;;;;;5073641;28;19919;-50
2023/04/12 02:19:22;;;;;;;;;;;10.40;85.30;;;;;;5073077;28;20408;-39
2023/04/12 02:21:48;;;;;;;;;;;10.40;85.60;;;;;;5073832;28;19909;-39
2023/04/12 02:24:14;;;;;;;;;;;10.40;85.40;;;;;;5074042;28;20026;-40
2023/04/12 02:26:40;;;;;;;;;;;10.40;85.70;;;;;;5073652;28;19908;-38
2023/04/12 02:29:08;;;;;;;;;;;10.30;86.00;;;;;;5073569;28;19921;-40
2023/04/12 02:31:35;;;;;;;;;;;10.30;86.80;;;;;;5073588;28;19912;-40
2023/04/12 02:34:01;;;;;;;;;;;10.30;87.70;;;;;;5073508;28;20449;-37
2023/04/12 02:36:27;;;;;;;;;;;10.30;88.40;;;;;;5072066;28;19919;-38
2023/04/12 02:38:53;;;;;;;;;;;10.30;88.80;;;;;;5073445;28;19908;-37
2023/04/12 02:41:19;;;;;;;;;;;10.20;88.20;;;;;;5073563;28;20291;-35
2023/04/12 02:43:45;;;;;;;;;;;10.20;89.00;;;;;;5073497;28;19909;-38
2023/04/12 02:46:14;;;;;;;;;;;10.20;88.80;;;;;;5072104;28;19908;-38
2023/04/12 02:48:40;;;;;;;;;;;10.10;89.00;;;;;;5073201;28;19909;-39
2023/04/12 02:51:06;;;;;;;;;;;10.10;89.10;;;;;;5071963;28;20202;-44
2023/04/12 02:53:31;;;;;;;;;;;10.10;89.20;;;;;;5073248;28;19913;-39
2023/04/12 02:56:00;;;;;;;;;;;10.10;89.00;;;;;;5073231;28;19920;-38
2023/04/12 02:58:26;;;;;;;;;;;10.10;88.80;;;;;;5072938;28;19915;-39
2023/04/12 03:00:51;;;;;;;;;;;10.10;88.90;;;;;;5073011;28;19934;-38
2023/04/12 03:03:17;;;;;;;;;;;10.10;89.40;;;;;;5072760;28;20654;-39
2023/04/12 03:05:46;;;;;;;;;;;10.10;90.00;;;;;;5072999;28;20224;-37
2023/04/12 03:08:12;;;;;;;;;;;10.10;90.00;;;;;;5072746;28;19912;-37
2023/04/12 03:10:37;;;;;;;;;;;10.10;89.60;;;;;;5072780;28;19916;-37
2023/04/12 03:13:03;;;;;;;;;;;10.10;89.30;;;;;;5073082;28;19909;-37
2023/04/12 03:15:29;;;;;;;;;;;10.10;89.10;;;;;;5072818;28;19916;-36
2023/04/12 03:17:55;;;;;;;;;;;10.10;89.80;;;;;;5072802;28;20371;-38
2023/04/12 03:20:23;;;;;;;;;;;10.10;89.00;;;;;;5072567;28;20429;-37
2023/04/12 03:22:48;;;;;;;;;;;10.10;88.60;;;;;;5072664;28;20282;-37
2023/04/12 03:25:16;;;;;;;;;;;10.10;89.10;;;;;;5072445;28;19910;-38
2023/04/12 03:27:42;;;;;;;;;;;10.10;88.90;;;;;;5072319;28;19931;-42
2023/04/12 03:30:10;;;;;;;;;;;10.00;89.10;;;;;;5072816;28;19908;-36
2023/04/12 03:32:36;;;;;;;;;;;10.00;88.80;;;;;;5072653;28;20276;-42
2023/04/12 03:35:02;;;;;;;;;;;10.00;88.90;;;;;;5072459;28;19912;-37
2023/04/12 03:37:27;;;;;;;;;;;10.00;89.20;;;;;;5072327;28;19971;-38
2023/04/12 03:39:53;;;;;;;;;;;10.00;88.90;;;;;;5072348;28;19936;-36
2023/04/12 03:42:18;;;;;;;;;;;10.10;88.90;;;;;;5072110;28;19908;-53
2023/04/12 03:44:44;;;;;;;;;;;10.10;89.10;;;;;;5072144;28;20253;-39
2023/04/12 03:47:10;;;;;;;;;;;10.00;89.20;;;;;;5072395;28;19970;-38
2023/04/12 03:49:37;;;;;;;;;;;10.00;89.80;;;;;;5072252;28;20283;-38
2023/04/12 03:52:03;;;;;;;;;;;10.00;90.10;;;;;;5071886;28;19962;-36
2023/04/12 03:54:29;;;;;;;;;;;10.00;90.10;;;;;;5071923;28;19943;-38
2023/04/12 03:56:55;;;;;;;;;;;9.90;90.00;;;;;;5071757;28;20316;-38
2023/04/12 03:59:21;;;;;;;;;;;9.90;90.20;;;;;;5072214;28;19908;-39
2023/04/12 04:01:46;;;;;;;;;;;9.90;90.20;;;;;;5071841;28;20253;-38
2023/04/12 04:04:12;;;;;;;;;;;9.90;90.30;;;;;;5071716;28;20333;-40
2023/04/12 04:06:38;;;;;;;;;;;9.90;90.40;;;;;;5071889;28;20280;-40
2023/04/12 04:09:03;;;;;;;;;;;9.80;90.40;;;;;;5071657;28;19915;-40
2023/04/12 04:11:29;;;;;;;;;;;9.80;90.40;;;;;;5071728;28;19915;-40
2023/04/12 04:13:55;;;;;;;;;;;9.80;90.70;;;;;;5071495;28;19909;-43
2023/04/12 04:16:20;;;;;;;;;;;9.80;90.70;;;;;;5071469;28;19920;-36
2023/04/12 04:18:46;;;;;;;;;;;9.80;90.60;;;;;;5070236;28;19966;-39
2023/04/12 04:21:13;;;;;;;;;;;9.80;90.60;;;;;;5071494;28;19909;-40
2023/04/12 04:23:38;;;;;;;;;;;9.70;90.70;;;;;;5071331;28;19963;-39
2023/04/12 04:26:05;;;;;;;;;;;9.70;90.80;;;;;;5071239;28;19909;-37
2023/04/12 04:28:32;;;;;;;;;;;9.70;90.90;;;;;;5071053;28;20334;-37
2023/04/12 04:31:02;;;;;;;;;;;9.60;91.10;;;;;;5071648;28;20435;-38
2023/04/12 04:33:28;;;;;;;;;;;9.60;91.30;;;;;;5071396;28;19973;-39
2023/04/12 04:35:55;;;;;;;;;;;9.60;91.50;;;;;;5071271;28;19913;-39
2023/04/12 04:38:24;;;;;;;;;;;9.60;91.40;;;;;;5071246;28;19908;-37
2023/04/12 04:40:52;;;;;;;;;;;9.60;91.40;;;;;;5071549;28;20034;-38
2023/04/12 04:43:19;;;;;;;;;;;9.60;91.30;;;;;;5075622;28;19966;-39
2023/04/12 04:45:47;;;;;;;;;;;9.50;91.20;;;;;;5077823;28;20300;-39
2023/04/12 04:48:13;;;;;;;;;;;9.50;91.10;;;;;;5077977;28;20081;-38
2023/04/12 04:50:38;;;;;;;;;;;9.60;91.20;;;;;;5078039;28;19924;-39
2023/04/12 04:53:04;;;;;;;;;;;9.50;91.00;;;;;;5077928;28;19912;-37
2023/04/12 04:55:29;;;;;;;;;;;9.50;90.90;;;;;;5077697;28;20372;-36
2023/04/12 04:57:56;;;;;;;;;;;9.50;91.00;;;;;;5077875;28;19909;-38
2023/04/12 05:00:24;;;;;;;;;;;9.50;91.30;;;;;;5077961;28;19913;-36
2023/04/12 05:02:50;;;;;;;;;;;9.50;91.40;;;;;;5077761;28;19909;-36
2023/04/12 05:05:16;;;;;;;;;;;9.50;91.40;;;;;;5077778;28;20334;-37
2023/04/12 05:07:44;;;;;;;;;;;9.50;91.40;;;;;;5077637;28;20283;-36
2023/04/12 05:10:10;;;;;;;;;;;9.50;91.40;;;;;;5076405;28;19915;-35
2023/04/12 05:12:36;;;;;;;;;;;9.50;91.30;;;;;;5077833;28;19999;-36
2023/04/12 05:15:02;;;;;;;;;;;9.50;91.20;;;;;;5077861;28;20008;-37
2023/04/12 05:17:27;;;;;;;;;;;9.50;91.10;;;;;;5077787;28;19982;-35
2023/04/12 05:19:53;;;;;;;;;;;9.50;91.20;;;;;;5077754;28;19909;-35
2023/04/12 05:22:20;;;;;;;;;;;9.50;91.10;;;;;;5078177;28;19912;-36
2023/04/12 05:24:46;;;;;;;;;;;9.50;91.20;;;;;;5077714;28;19913;-36
2023/04/12 05:27:12;;;;;;;;;;;9.50;91.10;;;;;;5076049;28;19913;-35
2023/04/12 05:29:37;;;;;;;;;;;9.50;91.10;;;;;;5077631;28;19908;-35
2023/04/12 05:32:03;;;;;;;;;;;9.50;91.10;;;;;;5077734;28;19912;-34
2023/04/12 05:34:30;;;;;;;;;;;9.40;91.10;;;;;;5077377;28;20156;-35
2023/04/12 05:36:56;;;;;;;;;;;9.40;91.10;;;;;;5077742;28;19956;-37
2023/04/12 05:39:21;;;;;;;;;;;9.50;91.10;;;;;;5077641;28;20415;-36
2023/04/12 05:41:47;;;;;;;;;;;9.50;90.90;;;;;;5077627;28;19916;-35
2023/04/12 05:44:13;;;;;;;;;;;9.50;90.70;;;;;;5077543;28;19909;-35
2023/04/12 05:46:38;;;;;;;;;;;9.50;90.60;;;;;;5077621;28;19908;-44
2023/04/12 05:49:04;;;;;;;;;;;9.60;90.50;;;;;;5077502;28;20552;-34
2023/04/12 05:51:30;;;;;;;;;;;9.60;90.50;;;;;;5077677;28;19955;-35
2023/04/12 05:53:55;;;;;;;;;;;9.60;90.40;;;;;;5075110;28;19909;-35
2023/04/12 05:56:21;;;;;;;;;;;9.60;90.30;;;;;;5074181;28;20444;-35
2023/04/12 05:58:47;;;;;;;;;;;9.60;90.20;;;;;;5074269;28;19909;-35
2023/04/12 06:01:15;;;;;;;;;;;9.60;90.20;;;;;;5074150;28;19909;-36
2023/04/12 06:03:42;;;;;;;;;;;9.60;90.20;;;;;;5074155;28;20225;-35
2023/04/12 06:06:08;;;;;;;;;;;9.60;90.40;;;;;;5074018;28;19912;-36
2023/04/12 06:08:34;;;;;;;;;;;9.60;90.30;;;;;;5073822;28;19909;-34
2023/04/12 06:11:00;;;;;;;;;;;9.60;90.30;;;;;;5073787;28;19974;-44
2023/04/12 06:13:26;;;;;;;;;;;9.70;90.20;;;;;;5073520;28;19958;-38
2023/04/12 06:15:51;;;;;;;;;;;9.70;90.10;;;;;;5073709;28;19943;-34
2023/04/12 06:18:17;;;;;;;;;;;9.70;89.90;;;;;;5073570;28;19916;-36
2023/04/12 06:20:42;;;;;;;;;;;9.80;89.80;;;;;;5073745;28;20339;-36
2023/04/12 06:23:08;;;;;;;;;;;9.80;89.70;;;;;;5073622;28;19909;-36
2023/04/12 06:25:34;;;;;;;;;;;9.80;89.60;;;;;;5073951;28;20360;-36
2023/04/12 06:27:59;;;;;;;;;;;9.80;89.40;;;;;;5073182;28;20443;-43
2023/04/12 06:30:25;;;;;;;;;;;9.80;89.70;;;;;;5072161;28;20030;-36
2023/04/12 06:32:50;;;;;;;;;;;9.80;89.70;;;;;;5073512;28;20004;-37
2023/04/12 06:35:16;;;;;;;;;;;9.80;89.70;;;;;;5073472;28;20034;-36
2023/04/12 06:37:41;;;;;;;;;;;9.80;89.60;;;;;;5073673;28;19920;-35
2023/04/12 06:40:07;;;;;;;;;;;9.80;89.70;;;;;;5072318;28;19912;-36
2023/04/12 06:42:33;;;;;;;;;;;9.80;90.00;;;;;;5073353;28;19959;-38
2023/04/12 06:44:58;;;;;;;;;;;9.70;90.00;;;;;;5073171;28;19920;-37
2023/04/12 06:47:24;;;;;;;;;;;9.70;90.00;;;;;;5073017;28;20351;-34
2023/04/12 06:49:51;;;;;;;;;;;9.80;90.00;;;;;;5073086;28;19965;-37
2023/04/12 06:52:17;;;;;;;;;;;9.80;90.00;;;;;;5072911;28;19919;-36
2023/04/12 06:54:43;;;;;;;;;;;9.80;89.90;;;;;;5071436;28;19912;-38
2023/04/12 06:57:10;;;;;;;;;;;9.80;90.00;;;;;;5072929;28;20069;-35
2023/04/12 06:59:35;;;;;;;;;;;9.80;90.00;;;;;;5073037;28;19909;-36
2023/04/12 07:02:00;;;;;;;;;;;9.90;90.00;;;;;;5072933;28;20295;-37
2023/04/12 07:04:26;;;;;;;;;;;9.90;89.90;;;;;;5072876;28;19995;-36
2023/04/12 07:06:51;;;;;;;;;;;10.00;89.70;;;;;;5072381;28;19916;-43
2023/04/12 07:09:18;;;;;;;;;;;10.00;89.50;;;;;;5072640;28;20311;-38
2023/04/12 07:11:43;;;;;;;;;;;10.00;89.90;;;;;;5072691;28;20100;-35
2023/04/12 07:14:09;;;;;;;;;;;10.00;89.10;;;;;;5073125;28;19909;-36
2023/04/12 07:16:35;;;;;;;;;;;10.00;88.90;;;;;;5072514;28;19919;-36
2023/04/12 07:19:00;;;;;;;;;;;10.10;88.90;;;;;;5072621;28;20283;-37
2023/04/12 07:21:26;;;;;;;;;;;10.10;88.80;;;;;;5072585;28;19908;-36
2023/04/12 07:23:51;;;;;;;;;;;10.10;88.70;;;;;;5072449;28;19913;-35
2023/04/12 07:26:20;;;;;;;;;;;10.10;88.60;;;;;;5072577;28;20288;-41
2023/04/12 07:28:46;;;;;;;;;;;10.20;88.60;;;;;;5072125;28;19925;-38
2023/04/12 07:31:11;;;;;;;;;;;10.20;88.40;;;;;;5072379;28;20380;-36
2023/04/12 07:33:37;;;;;;;;;;;10.20;88.20;;;;;;5072382;28;19997;-36
2023/04/12 07:36:03;;;;;;;;;;;10.20;88.10;;;;;;5071040;28;19927;-37
2023/04/12 07:38:28;;;;;;;;;;;10.30;88.10;;;;;;5072505;28;20422;-36
2023/04/12 07:40:55;;;;;;;;;;;10.30;88.00;;;;;;5072275;28;19912;-35
2023/04/12 07:43:21;;;;;;;;;;;10.40;88.00;;;;;;5072343;28;19966;-35
2023/04/12 07:45:46;;;;;;;;;;;10.40;87.90;;;;;;5072882;28;20015;-35
2023/04/12 07:48:12;;;;;;;;;;;10.40;87.80;;;;;;5072297;28;19913;-35
2023/04/12 07:50:38;;;;;;;;;;;10.40;87.70;;;;;;5072247;28;20336;-36
2023/04/12 07:53:21;;;;;;;;;;;10.40;87.70;;;;;;5072035;28;19913;-34
2023/04/12 07:55:46;;;;;;;;;;;10.40;87.80;;;;;;5072051;28;20007;-35
2023/04/12 07:58:12;;;;;;;;;;;10.40;87.70;;;;;;5071980;28;20003;-35
2023/04/12 08:00:37;;;;;;;;;;;10.40;87.80;;;;;;5072014;28;20367;-36
2023/04/12 08:03:03;;;;;;;;;;;10.50;87.80;;;;;;5071835;28;20392;-35
2023/04/12 08:05:28;;;;;;;;;;;10.50;87.70;;;;;;5071907;28;19913;-36
2023/04/12 08:07:54;;;;;;;;;;;10.60;87.70;;;;;;5071826;28;19912;-35
2023/04/12 08:10:20;;;;;;;;;;;10.60;87.50;;;;;;5071880;28;20428;-37
2023/04/12 08:12:45;;;;;;;;;;;10.70;87.40;;;;;;5071920;28;19912;-35
2023/04/12 08:15:12;;;;;;;;;;;10.70;87.30;;;;;;5072011;28;20019;-35
2023/04/12 08:17:37;;;;;;;;;;;10.70;87.30;;;;;;5071066;28;19917;-36
2023/04/12 08:20:03;;;;;;;;;;;10.70;87.30;;;;;;5071733;28;19919;-35
2023/04/12 08:22:29;;;;;;;;;;;10.70;87.30;;;;;;5071864;28;20378;-36
2023/04/12 08:24:54;;;;;;;;;;;10.70;87.50;;;;;;5071727;28;19912;-36
2023/04/12 08:27:20;;;;;;;;;;;10.80;87.30;;;;;;5071698;28;20007;-37
2023/04/12 08:29:45;;;;;;;;;;;10.90;87.30;;;;;;5071591;28;19919;-37
2023/04/12 08:32:11;;;;;;;;;;;11.00;87.20;;;;;;5071642;28;19916;-35
2023/04/12 08:34:37;;;;;;;;;;;11.10;87.10;;;;;;5071616;28;19913;-36
2023/04/12 08:37:02;;;;;;;;;;;11.20;87.00;;;;;;5071517;28;19920;-36
2023/04/12 08:39:30;;;;;;;;;;;11.30;86.90;;;;;;5071404;28;20326;-37
2023/04/12 08:41:55;;;;;;;;;;;11.30;86.60;;;;;;5071353;28;19916;-35
2023/04/12 08:44:31;;;;;;;;;;;11.40;86.50;;;;;;5071527;28;19913;-35
2023/04/12 08:46:56;;;;;;;;;;;11.40;86.40;;;;;;5071238;28;19912;-35
2023/04/12 08:49:23;;;;;;;;;;;11.50;86.30;;;;;;5071428;28;19935;-42
2023/04/12 08:51:50;;;;;;;;;;;11.50;86.30;;;;;;5071405;28;20273;-37
2023/04/12 08:54:16;;;;;;;;;;;11.60;86.20;;;;;;5071646;28;19913;-36
2023/04/12 08:56:42;;;;;;;;;;;11.60;85.80;;;;;;5071339;28;19942;-35
2023/04/12 08:59:09;;;;;;;;;;;11.60;85.80;;;;;;5071371;28;20511;-37
2023/04/12 09:01:35;;;;;;;;;;;11.70;85.80;;;;;;5071270;28;20252;-36
2023/04/12 09:04:04;;;;;;;;;;;11.70;85.70;;;;;;5071203;28;19920;-36
2023/04/12 09:06:30;;;;;;;;;;;11.70;85.50;;;;;;5071344;28;19912;-37
2023/04/12 09:08:56;;;;;;;;;;;11.80;85.50;;;;;;5071063;28;20155;-35
2023/04/12 09:11:25;;;;;;;;;;;11.80;85.30;;;;;;5071212;28;19912;-35
2023/04/12 09:13:52;;;;;;;;;;;11.80;85.30;;;;;;5071220;28;20376;-37
2023/04/12 09:16:32;;;;;;;;;;;11.80;85.20;;;;;;5071031;28;20015;-46
2023/04/12 09:19:01;;;;;;;;;;;11.80;85.10;;;;;;5071218;28;19913;-36
2023/04/12 09:21:27;;;;;;;;;;;11.90;85.10;;;;;;5071052;28;20384;-38
2023/04/12 09:24:03;;;;;;;;;;;12.00;85.00;;;;;;5071082;28;19940;-35
2023/04/12 09:26:29;;;;;;;;;;;12.10;84.90;;;;;;5070951;28;19951;-40
2023/04/12 09:28:54;;;;;;;;;;;12.30;84.70;;;;;;5072385;28;19917;-34
2023/04/12 09:31:20;;;;;;;;;;;12.40;84.40;;;;;;5074865;28;19912;-36
2023/04/12 09:33:46;;;;;;;;;;;12.50;84.20;;;;;;5074747;28;19920;-36
2023/04/12 09:36:16;;;;;;;;;;;12.60;84.00;;;;;;5074604;28;19924;-34
2023/04/12 09:38:57;;;;;;;;;;;12.70;83.90;;;;;;5073501;28;19959;-38
2023/04/12 09:41:23;;;;;;;;;;;12.90;83.70;;;;;;5074990;28;19923;-36
2023/04/12 09:43:48;;;;;;;;;;;13.00;82.70;;;;;;5074899;28;20295;-43
2023/04/12 09:46:15;;;;;;;;;;;13.00;82.30;;;;;;5074498;28;19912;-35
2023/04/12 09:48:42;;;;;;;;;;;13.00;82.40;;;;;;5074747;28;19913;-37
2023/04/12 09:51:07;;;;;;;;;;;13.10;82.50;;;;;;5074744;28;20009;-37
2023/04/12 09:53:35;;;;;;;;;;;13.20;82.10;;;;;;5074389;28;20326;-36
2023/04/12 09:56:01;;;;;;;;;;;13.30;82.10;;;;;;5074517;28;20253;-37
2023/04/12 09:58:27;;;;;;;;;;;13.30;81.70;;;;;;5074418;28;20341;-35
2023/04/12 10:00:54;;;;;;;;;;;13.30;81.50;;;;;;5074614;28;20015;-35
2023/04/12 10:03:20;;;;;;;;;;;13.40;80.90;;;;;;5074347;28;19924;-38
2023/04/12 10:05:45;;;;;;;;;;;13.40;80.90;;;;;;5074644;28;20437;-36
2023/04/12 10:08:12;;;;;;;;;;;13.40;80.70;;;;;;5073801;28;19916;-37
2023/04/12 10:10:37;;;;;;;;;;;13.40;80.70;;;;;;5073908;28;20002;-36
2023/04/12 10:13:04;;;;;;;;;;;13.50;80.70;;;;;;5073481;28;20368;-36
2023/04/12 10:15:30;;;;;;;;;;;13.60;80.70;;;;;;5074071;28;19916;-37
2023/04/12 10:17:56;;;;;;;;;;;13.60;79.90;;;;;;5073967;28;19913;-36
2023/04/12 10:20:22;;;;;;;;;;;13.70;79.80;;;;;;5073934;28;20287;-37
2023/04/12 10:22:48;;;;;;;;;;;13.70;79.90;;;;;;5073892;28;19916;-36
2023/04/12 10:25:15;;;;;;;;;;;13.80;79.60;;;;;;5073673;28;19981;-36
2023/04/12 10:27:41;;;;;;;;;;;13.80;79.20;;;;;;5073645;28;19924;-37
2023/04/12 10:30:26;;;;;;;;;;;13.80;79.00;;;;;;5074190;28;19909;-38
2023/04/12 10:33:03;;;;;;;;;;;13.80;79.10;;;;;;5073814;28;19962;-36
2023/04/12 10:35:29;;;;;;;;;;;14.00;79.20;;;;;;5074134;28;20275;-35
2023/04/12 10:38:01;;;;;;;;;;;14.00;79.00;;;;;;5073682;28;19926;-36
2023/04/12 10:40:28;;;;;;;;;;;14.00;77.30;;;;;;5073294;28;20341;-35
2023/04/12 10:43:12;;;;;;;;;;;14.00;76.80;;;;;;5073619;28;20294;-35
2023/04/12 10:45:37;;;;;;;;;;;14.00;77.00;;;;;;5073408;28;20276;-34
2023/04/12 10:48:05;;;;;;;;;;;14.00;76.00;;;;;;5072636;28;19914;-37
2023/04/12 10:50:32;;;;;;;;;;;13.90;76.50;;;;;;5073558;28;19912;-36
2023/04/12 10:53:16;;;;;;;;;;;13.90;76.50;;;;;;5073478;28;20012;-35
2023/04/12 10:55:43;;;;;;;;;;;13.70;76.20;;;;;;5073610;28;19918;-36
2023/04/12 10:58:09;;;;;;;;;;;13.50;76.80;;;;;;5073650;28;20072;-37
2023/04/12 11:00:53;;;;;;;;;;;13.40;77.00;;;;;;5073688;28;19917;-37
2023/04/12 11:03:18;;;;;;;;;;;13.30;76.40;;;;;;5073189;28;20261;-36
2023/04/12 11:05:55;;;;;;;;;;;13.20;77.00;;;;;;5073243;28;19995;-36
2023/04/12 11:08:22;;;;;;;;;;;13.10;77.20;;;;;;5073087;28;19912;-36
2023/04/12 11:10:48;;;;;;;;;;;13.00;76.10;;;;;;5073246;28;19915;-36
2023/04/12 11:13:14;;;;;;;;;;;13.00;76.10;;;;;;5073065;28;19980;-37
2023/04/12 11:15:40;;;;;;;;;;;12.90;75.90;;;;;;5073215;28;19952;-37
2023/04/12 11:18:05;;;;;;;;;;;12.90;76.10;;;;;;5073143;28;19951;-36
2023/04/12 11:20:32;;;;;;;;;;;12.90;75.60;;;;;;5072722;28;19920;-38
2023/04/12 11:22:58;;;;;;;;;;;12.90;75.20;;;;;;5072864;28;19908;-42
2023/04/12 11:25:23;;;;;;;;;;;13.00;75.80;;;;;;5073142;28;19999;-37
2023/04/12 11:27:50;;;;;;;;;;;13.10;74.80;;;;;;5072527;28;19920;-37
2023/04/12 11:30:16;;;;;;;;;;;13.20;74.70;;;;;;5072434;28;19908;-39
2023/04/12 11:32:43;;;;;;;;;;;13.20;74.10;;;;;;5072707;28;19913;-38
2023/04/12 11:35:09;;;;;;;;;;;13.30;74.70;;;;;;5072435;28;19954;-36
2023/04/12 11:37:34;;;;;;;;;;;13.50;74.80;;;;;;5072367;28;20003;-34
2023/04/12 11:40:04;;;;;;;;;;;13.60;74.80;;;;;;5072630;28;19912;-39
2023/04/12 11:42:30;;;;;;;;;;;13.60;74.50;;;;;;5072313;28;19909;-37
2023/04/12 11:44:55;;;;;;;;;;;13.70;74.00;;;;;;5072167;28;19915;-36
2023/04/12 11:47:22;;;;;;;;;;;13.70;73.50;;;;;;5072178;28;19964;-37
2023/04/12 11:49:49;;;;;;;;;;;13.70;73.70;;;;;;5070931;28;19908;-37
2023/04/12 11:52:15;;;;;;;;;;;13.80;73.50;;;;;;5071266;28;19992;-37
2023/04/12 11:54:45;;;;;;;;;;;13.90;73.30;;;;;;5072273;28;19923;-47
2023/04/12 11:57:11;;;;;;;;;;;14.00;73.00;;;;;;5070812;28;19982;-38
2023/04/12 11:59:37;;;;;;;;;;;14.00;72.50;;;;;;5072224;28;19965;-38
2023/04/12 12:02:03;;;;;;;;;;;14.10;72.70;;;;;;5072387;28;19908;-38
2023/04/12 12:04:29;;;;;;;;;;;14.10;72.80;;;;;;5072146;28;19908;-36
2023/04/12 12:06:55;;;;;;;;;;;14.10;72.70;;;;;;5072143;28;20360;-37
2023/04/12 12:09:21;;;;;;;;;;;14.00;71.30;;;;;;5072293;28;20395;-40
2023/04/12 12:11:46;;;;;;;;;;;14.00;68.50;;;;;;5072205;28;19915;-38
2023/04/12 12:14:16;;;;;;;;;;;14.00;66.70;;;;;;5071911;28;19948;-43
2023/04/12 12:16:50;;;;;;;;;;;14.00;66.70;;;;;;5071766;28;19919;-38
2023/04/12 12:19:24;;;;;;;;;;;14.00;65.30;;;;;;5071764;28;19915;-35
2023/04/12 12:21:51;;;;;;;;;;;13.90;65.50;;;;;;5071538;28;19997;-37
2023/04/12 12:24:16;;;;;;;;;;;13.90;65.90;;;;;;5070530;28;19928;-38
2023/04/12 12:26:42;;;;;;;;;;;13.90;63.70;;;;;;5071716;28;19916;-38
2023/04/12 12:29:15;;;;;;;;;;;13.80;64.70;;;;;;5071579;28;19956;-37
2023/04/12 12:31:45;;;;;;;;;;;13.80;65.20;;;;;;5071920;28;20425;-36
2023/04/12 12:34:12;;;;;;;;;;;13.80;65.80;;;;;;5071504;28;19959;-38
2023/04/12 12:36:37;;;;;;;;;;;13.90;65.70;;;;;;5071730;28;19989;-37
2023/04/12 12:39:05;;;;;;;;;;;13.90;65.60;;;;;;5071723;28;19909;-38
2023/04/12 12:41:31;;;;;;;;;;;14.00;65.40;;;;;;5071885;28;20418;-37
2023/04/12 12:43:56;;;;;;;;;;;13.90;65.60;;;;;;5071788;28;19908;-36
2023/04/12 12:46:22;;;;;;;;;;;13.90;65.50;;;;;;5071569;28;19991;-37
2023/04/12 12:48:47;;;;;;;;;;;13.90;65.70;;;;;;5071448;28;19915;-34
2023/04/12 12:51:16;;;;;;;;;;;14.00;65.90;;;;;;5071479;28;19908;-38
2023/04/12 12:53:42;;;;;;;;;;;14.00;63.00;;;;;;5071611;28;19913;-40
2023/04/12 12:56:10;;;;;;;;;;;14.00;61.90;;;;;;5071451;28;19977;-42
2023/04/12 12:58:36;;;;;;;;;;;14.10;59.80;;;;;;5071505;28;20038;-37
2023/04/12 13:01:03;;;;;;;;;;;14.00;55.40;;;;;;5071587;28;19915;-37
2023/04/12 13:03:29;;;;;;;;;;;14.00;54.60;;;;;;5072338;28;20208;-38
2023/04/12 13:05:55;;;;;;;;;;;13.90;55.70;;;;;;5075576;28;19937;-36
2023/04/12 13:08:20;;;;;;;;;;;13.80;56.20;;;;;;5075457;28;19909;-37
2023/04/12 13:10:46;;;;;;;;;;;13.80;55.20;;;;;;5075118;28;20323;-37
2023/04/12 13:13:12;;;;;;;;;;;13.70;55.50;;;;;;5073998;28;20368;-37
2023/04/12 13:15:37;;;;;;;;;;;13.70;54.80;;;;;;5075470;28;19912;-38
2023/04/12 13:18:03;;;;;;;;;;;13.60;55.50;;;;;;5075161;28;19913;-38
2023/04/12 13:20:28;;;;;;;;;;;13.60;55.00;;;;;;5074090;28;20343;-36
2023/04/12 13:22:54;;;;;;;;;;;13.50;56.00;;;;;;5075404;28;20330;-36
2023/04/12 13:25:20;;;;;;;;;;;13.50;56.20;;;;;;5075431;28;19908;-39
2023/04/12 13:27:49;;;;;;;;;;;13.50;55.60;;;;;;5075180;28;19916;-38
2023/04/12 13:30:15;;;;;;;;;;;13.50;55.80;;;;;;5075214;28;19909;-37
2023/04/12 13:32:41;;;;;;;;;;;13.50;54.90;;;;;;5075032;28;20030;-38
2023/04/12 13:35:06;;;;;;;;;;;13.50;54.70;;;;;;5074954;28;19931;-44
2023/04/12 13:37:32;;;;;;;;;;;13.40;54.90;;;;;;5074774;28;19924;-48
2023/04/12 13:39:58;;;;;;;;;;;13.40;55.20;;;;;;5074917;28;19915;-38
2023/04/12 13:42:23;;;;;;;;;;;13.40;55.80;;;;;;5074788;28;20350;-38
2023/04/12 13:44:49;;;;;;;;;;;13.40;56.10;;;;;;5074555;28;19909;-39
2023/04/12 13:47:15;;;;;;;;;;;13.40;56.30;;;;;;5074767;28;19932;-38
2023/04/12 13:49:40;;;;;;;;;;;13.40;55.20;;;;;;5074489;28;19908;-39
2023/04/12 13:52:06;;;;;;;;;;;13.30;56.30;;;;;;5074708;28;19908;-40
2023/04/12 13:54:31;;;;;;;;;;;13.30;56.20;;;;;;5074638;28;19919;-38
2023/04/12 13:56:58;;;;;;;;;;;13.30;56.40;;;;;;5074424;28;19966;-36
2023/04/12 13:59:24;;;;;;;;;;;13.30;56.20;;;;;;5074475;28;19995;-39
2023/04/12 14:01:49;;;;;;;;;;;13.20;56.30;;;;;;5074475;28;19908;-36
2023/04/12 14:04:15;;;;;;;;;;;13.10;56.60;;;;;;5074349;28;19995;-37
2023/04/12 14:06:40;;;;;;;;;;;13.10;56.50;;;;;;5074269;28;19912;-38
2023/04/12 14:09:06;;;;;;;;;;;13.10;57.40;;;;;;5072949;28;19909;-38
2023/04/12 14:11:43;;;;;;;;;;;13.00;57.90;;;;;;5074304;28;19913;-39
2023/04/12 14:14:09;;;;;;;;;;;12.90;57.90;;;;;;5074230;28;19912;-37
2023/04/12 14:16:34;;;;;;;;;;;12.70;58.70;;;;;;5072850;28;19912;-38
2023/04/12 14:19:00;;;;;;;;;;;12.60;59.00;;;;;;5073950;28;19909;-47